Time;durP1;ratioP1;P1;durP2;ratioP2;P2;SDS_P1;SDS_P2;PMS_P1;PMS_P2;Temp;Humidity;BMP_temperature;BMP_pressure;BME280_temperature;BME280_humidity;BME280_pressure;Samples;Min_cycle;Max_cycle;Signal;HPM_P1;HPM_P2
2022/06/05 00:00:56;;;;;;;3.72;2.50;;;20.00;99.90;;;-146.41;100.00;57768.22;4986771;28;20125;-69
2022/06/05 00:04:10;;;;;;;4.00;2.60;;;20.00;99.90;;;-146.41;100.00;57768.22;4968875;28;20168;-69
2022/06/05 00:07:11;;;;;;;3.33;2.55;;;20.00;99.90;;;-146.41;100.00;57768.22;4968461;28;20121;-69
2022/06/05 00:09:56;;;;;;;9.50;3.33;;;20.00;99.90;;;-146.41;100.00;57768.22;4972342;28;20134;-69
2022/06/05 00:12:35;;;;;;;4.68;2.65;;;20.00;99.90;;;-146.41;100.00;57768.22;4991852;28;20046;-69
2022/06/05 00:15:03;;;;;;;4.60;3.47;;;19.90;99.90;;;-146.41;100.00;57768.22;4975820;28;20121;-71
2022/06/05 00:17:30;;;;;;;4.93;3.67;;;19.80;99.90;;;-146.41;100.00;57768.22;4991089;28;20148;-69
2022/06/05 00:19:57;;;;;;;3.95;3.03;;;19.80;99.90;;;-146.41;100.00;57768.22;4987948;28;20133;-69
2022/06/05 00:22:24;;;;;;;7.55;3.00;;;19.70;99.90;;;-146.41;100.00;57768.22;4972439;28;20046;-69
2022/06/05 00:24:51;;;;;;;4.85;2.80;;;19.70;99.90;;;-146.41;100.00;57768.22;4991407;28;20085;-69
2022/06/05 00:27:38;;;;;;;5.47;3.25;;;19.80;99.90;;;-146.41;100.00;57768.22;4987799;28;20080;-69
2022/06/05 00:30:26;;;;;;;4.07;2.70;;;19.80;99.90;;;-146.41;100.00;57768.22;4990566;28;20331;-69
2022/06/05 00:33:31;;;;;;;4.53;2.28;;;19.80;99.90;;;-146.41;100.00;57768.22;4985382;28;20050;-69
2022/06/05 00:36:28;;;;;;;4.55;3.35;;;19.90;99.90;;;-146.41;100.00;57768.22;4975807;28;20101;-69
2022/06/05 00:39:27;;;;;;;4.35;2.90;;;19.80;99.90;;;-146.41;100.00;57768.22;4986222;28;20088;-69
2022/06/05 00:42:00;;;;;;;4.57;3.67;;;19.70;99.90;;;-146.41;100.00;57768.22;4972570;28;20081;-69
2022/06/05 00:44:44;;;;;;;3.50;2.72;;;19.70;99.90;;;-146.41;100.00;57768.22;4976553;28;20046;-70
2022/06/05 00:47:18;;;;;;;3.53;3.22;;;19.80;99.90;;;-146.41;100.00;57768.22;4974595;28;20534;-69
2022/06/05 00:49:52;;;;;;;5.00;3.20;;;19.80;99.90;;;-146.41;100.00;57768.22;4978017;28;20084;-69
2022/06/05 00:52:22;;;;;;;6.32;3.28;;;19.80;99.90;;;-146.41;100.00;57768.22;4975985;28;20046;-69
2022/06/05 00:54:50;;;;;;;4.32;2.90;;;19.80;99.90;;;-146.41;100.00;57768.22;4990792;28;20054;-69
2022/06/05 00:57:17;;;;;;;3.90;3.03;;;19.70;99.90;;;-146.41;100.00;57768.22;4992777;28;20077;-69
2022/06/05 00:59:47;;;;;;;3.60;2.60;;;19.70;99.90;;;-146.41;100.00;57768.22;4966734;28;20056;-69
2022/06/05 01:02:15;;;;;;;5.78;3.40;;;19.70;99.90;;;-146.41;100.00;57768.22;4960076;28;20046;-69
2022/06/05 01:04:46;;;;;;;4.20;2.75;;;19.70;99.90;;;-146.41;100.00;57768.22;4993482;28;20738;-69
2022/06/05 01:07:14;;;;;;;2.85;2.47;;;19.70;99.90;;;-146.41;100.00;57768.22;4967477;28;20711;-69
2022/06/05 01:09:43;;;;;;;5.10;2.63;;;19.70;99.90;;;-146.41;100.00;57768.22;4989887;28;20046;-68
2022/06/05 01:12:26;;;;;;;2.92;2.47;;;19.80;99.90;;;-146.41;100.00;57768.22;4988740;28;20128;-68
2022/06/05 01:15:08;;;;;;;3.55;2.75;;;19.80;99.90;;;-146.41;100.00;57768.22;4989465;28;20149;-68
2022/06/05 01:17:54;;;;;;;5.50;3.53;;;19.80;99.90;;;-146.41;100.00;57768.22;4989941;28;20120;-68
2022/06/05 01:20:30;;;;;;;3.78;3.08;;;19.70;99.90;;;-146.41;100.00;57768.22;4991568;28;20151;-68
2022/06/05 01:23:33;;;;;;;5.60;3.10;;;19.60;99.90;;;-146.41;100.00;57768.22;4992041;28;20145;-68
2022/06/05 01:26:33;;;;;;;5.22;3.35;;;19.60;99.90;;;-146.41;100.00;57768.22;4991302;28;20042;-69
2022/06/05 01:29:01;;;;;;;4.70;3.75;;;19.60;99.90;;;-146.41;100.00;57768.22;4993997;28;20194;-68
2022/06/05 01:31:45;;;;;;;3.88;3.28;;;19.50;99.90;;;-146.41;100.00;57768.22;4975351;28;20046;-70
2022/06/05 01:34:30;;;;;;;4.47;3.85;;;19.40;99.90;;;-146.41;100.00;57768.22;4976248;28;20100;-69
2022/06/05 01:37:10;;;;;;;4.95;4.03;;;19.40;99.90;;;-146.41;100.00;57768.22;4976892;28;20141;-70
2022/06/05 01:40:04;;;;;;;5.90;4.50;;;19.20;99.90;;;-146.41;100.00;57768.22;4973348;28;20548;-70
2022/06/05 01:43:06;;;;;;;4.65;3.92;;;19.20;99.90;;;-146.41;100.00;57768.22;4987624;28;20133;-70
2022/06/05 01:45:53;;;;;;;5.95;4.10;;;19.00;99.90;;;-146.41;100.00;57768.22;4988393;28;20042;-70
2022/06/05 01:48:28;;;;;;;6.75;4.20;;;19.10;99.90;;;-146.41;100.00;57768.22;4987589;28;20564;-69
2022/06/05 01:51:00;;;;;;;5.63;4.47;;;19.10;99.90;;;-146.41;100.00;57768.22;4974768;28;20142;-70
2022/06/05 01:53:39;;;;;;;5.82;4.75;;;19.10;99.90;;;-146.41;100.00;57768.22;4979695;28;20077;-69
2022/06/05 01:56:17;;;;;;;7.22;4.90;;;19.10;99.90;;;-146.41;100.00;57768.22;4990675;28;20046;-69
2022/06/05 01:58:54;;;;;;;5.05;4.25;;;19.10;99.90;;;-146.41;100.00;57768.22;4991017;28;20587;-69
2022/06/05 02:01:27;;;;;;;6.90;4.57;;;19.10;99.90;;;-146.41;100.00;57768.22;4976940;28;20050;-70
2022/06/05 02:04:14;;;;;;;7.18;5.05;;;19.10;99.90;;;-146.41;100.00;57768.22;4974020;28;21167;-69
2022/06/05 02:06:58;;;;;;;6.78;4.85;;;19.10;99.90;;;-146.41;100.00;57768.22;4978176;28;20133;-70
2022/06/05 02:09:34;;;;;;;6.38;4.93;;;19.10;99.90;;;-146.41;100.00;57768.22;4976554;28;20073;-69
2022/06/05 02:12:03;;;;;;;6.07;5.25;;;19.10;99.90;;;-146.41;100.00;57768.22;4973157;28;20155;-70
2022/06/05 02:14:31;;;;;;;8.50;5.57;;;19.10;99.90;;;-146.41;100.00;57768.22;4993186;28;20050;-69
2022/06/05 02:16:59;;;;;;;6.18;5.57;;;19.10;99.90;;;-146.41;100.00;57768.22;4975588;28;20538;-70
2022/06/05 02:19:26;;;;;;;7.00;6.20;;;19.00;99.90;;;-146.41;100.00;57768.22;4987737;28;20077;-70
2022/06/05 02:22:02;;;;;;;7.93;5.32;;;19.10;99.90;;;-146.41;100.00;57768.22;4973477;28;20058;-70
2022/06/05 02:24:29;;;;;;;7.07;5.00;;;19.10;99.90;;;-146.41;100.00;57768.22;4973324;28;20081;-70
2022/06/05 02:26:59;;;;;;;6.45;5.00;;;19.10;99.90;;;-146.41;100.00;57768.22;4989342;28;20137;-70
2022/06/05 02:29:26;;;;;;;6.45;5.20;;;19.10;99.90;;;-146.41;100.00;57768.22;4973888;28;20078;-70
2022/06/05 02:32:21;;;;;;;8.32;4.78;;;19.20;99.90;;;-146.41;100.00;57768.22;4976082;28;20097;-69
2022/06/05 02:35:33;;;;;;;4.57;3.90;;;19.20;99.90;;;-146.41;100.00;57768.22;4988844;28;20078;-70
2022/06/05 02:38:12;;;;;;;7.13;4.60;;;19.20;99.90;;;-146.41;100.00;57768.22;4984369;28;20046;-69
2022/06/05 02:40:56;;;;;;;6.57;5.00;;;19.30;99.90;;;-146.41;100.00;57768.22;4988480;28;20716;-67
2022/06/05 02:43:37;;;;;;;5.97;4.47;;;19.30;99.90;;;-146.41;100.00;57768.22;4988724;28;20053;-70
2022/06/05 02:46:11;;;;;;;8.15;5.47;;;19.30;99.90;;;-146.41;100.00;57768.22;4976968;28;21496;-69
2022/06/05 02:48:47;;;;;;;6.07;4.90;;;19.30;99.90;;;-146.41;100.00;57768.22;4969173;28;20082;-69
2022/06/05 02:51:28;;;;;;;6.03;4.40;;;19.30;99.90;;;-146.41;100.00;57768.22;4989253;28;20047;-69
2022/06/05 02:53:58;;;;;;;5.22;4.72;;;19.30;99.90;;;-146.41;100.00;57768.22;4960374;28;20508;-69
2022/06/05 02:56:29;;;;;;;6.38;5.57;;;19.40;99.90;;;-146.41;100.00;57768.22;4987093;28;20513;-70
2022/06/05 02:58:59;;;;;;;7.95;5.15;;;19.30;99.90;;;-146.41;100.00;57768.22;4988050;28;20094;-70
2022/06/05 03:04:13;;;;;;;8.30;5.10;;;19.30;99.90;;;-146.41;100.00;57768.22;4992606;28;20060;-70
2022/06/05 03:06:41;;;;;;;6.85;5.03;;;19.20;99.90;;;-146.41;100.00;57768.22;4993659;28;20567;-70
2022/06/05 03:09:09;;;;;;;7.25;5.00;;;19.20;99.90;;;-146.41;100.00;57768.22;4971859;28;20496;-70
2022/06/05 03:11:42;;;;;;;5.63;4.65;;;19.20;99.90;;;-146.41;100.00;57768.22;4991433;28;20140;-70
2022/06/05 03:14:09;;;;;;;6.45;4.53;;;19.20;99.90;;;-146.41;100.00;57768.22;4991583;28;20046;-68
2022/06/05 03:16:36;;;;;;;6.28;4.53;;;19.20;99.90;;;-146.41;100.00;57768.22;4964288;28;20088;-69
2022/06/05 03:19:03;;;;;;;5.20;4.40;;;19.20;99.90;;;-146.41;100.00;57768.22;4988922;28;20144;-68
2022/06/05 03:21:33;;;;;;;6.07;4.03;;;19.20;99.90;;;-146.41;100.00;57768.22;4988717;28;20096;-68
2022/06/05 03:24:00;;;;;;;4.72;4.20;;;19.10;99.90;;;-146.41;100.00;57768.22;4972141;28;20074;-68
2022/06/05 03:26:27;;;;;;;9.13;5.70;;;19.10;99.90;;;-146.41;100.00;57768.22;4991884;28;20196;-67
2022/06/05 03:28:54;;;;;;;9.82;5.60;;;19.00;99.90;;;-146.41;100.00;57768.22;4989275;28;20129;-68
2022/06/05 03:31:21;;;;;;;7.25;5.30;;;18.90;99.90;;;-146.41;100.00;57768.22;4990267;28;20459;-67
2022/06/05 03:33:49;;;;;;;7.68;5.65;;;19.00;99.90;;;-146.41;100.00;57768.22;4988682;28;20069;-68
2022/06/05 03:36:18;;;;;;;13.07;7.45;;;19.00;99.90;;;-146.41;100.00;57768.22;4990210;28;20057;-70
2022/06/05 03:38:45;;;;;;;10.65;7.03;;;18.90;99.90;;;-146.41;100.00;57768.22;4992616;28;20433;-70
2022/06/05 03:41:17;;;;;;;9.73;8.32;;;18.80;99.90;;;-146.41;100.00;57768.22;4989575;28;20073;-69
2022/06/05 03:43:45;;;;;;;9.07;8.00;;;18.60;99.90;;;-146.41;100.00;57768.22;4989416;28;20060;-69
2022/06/05 03:46:15;;;;;;;11.50;9.30;;;18.50;99.90;;;-146.41;100.00;57768.22;4990124;28;20050;-69
2022/06/05 03:48:43;;;;;;;12.75;10.82;;;18.30;99.90;;;-146.41;100.00;57768.22;4990491;28;20124;-69
2022/06/05 03:51:19;;;;;;;11.82;10.48;;;18.20;99.90;;;-146.41;100.00;57768.22;4989108;28;20081;-69
2022/06/05 03:53:47;;;;;;;13.82;10.95;;;18.20;99.90;;;-146.41;100.00;57768.22;4973993;28;20124;-69
2022/06/05 03:56:21;;;;;;;12.90;11.50;;;18.10;99.90;;;-146.41;100.00;57768.22;4996324;28;20058;-70
2022/06/05 03:58:50;;;;;;;12.68;10.50;;;18.00;99.90;;;-146.41;100.00;57768.22;4989368;28;20100;-69
2022/06/05 04:01:20;;;;;;;10.25;9.25;;;18.00;99.90;;;-146.41;100.00;57768.22;4989494;28;20104;-69
2022/06/05 04:03:47;;;;;;;10.68;8.07;;;18.00;99.90;;;-146.41;100.00;57768.22;4988265;28;20050;-70
2022/06/05 04:06:27;;;;;;;8.85;6.95;;;18.00;99.90;;;-146.41;100.00;57768.22;4987570;28;20508;-70
2022/06/05 04:09:04;;;;;;;11.52;7.93;;;18.00;99.90;;;-146.41;100.00;57768.22;4992205;28;20113;-70
2022/06/05 04:11:34;;;;;;;15.15;11.55;;;18.00;99.90;;;-146.41;100.00;57768.22;4995144;28;20082;-70
2022/06/05 04:14:02;;;;;;;17.10;11.82;;;18.10;99.90;;;-146.41;100.00;57768.22;4992616;28;20134;-70
2022/06/05 04:16:32;;;;;;;12.68;10.95;;;18.00;99.90;;;-146.41;100.00;57768.22;4997955;28;20106;-70
2022/06/05 04:19:00;;;;;;;11.65;9.23;;;17.90;99.90;;;-146.41;100.00;57768.22;4992425;28;20152;-69
2022/06/05 04:21:32;;;;;;;15.32;10.85;;;17.80;99.90;;;-146.41;100.00;57768.22;4964399;28;20678;-69
2022/06/05 04:24:00;;;;;;;10.55;9.13;;;17.80;99.90;;;-146.41;100.00;57768.22;4994526;28;20813;-69
2022/06/05 04:26:31;;;;;;;13.25;10.93;;;17.80;99.90;;;-146.41;100.00;57768.22;4990269;28;20125;-70
2022/06/05 04:28:59;;;;;;;14.43;11.80;;;17.80;99.90;;;-146.41;100.00;57768.22;4987332;28;20438;-70
2022/06/05 04:31:41;;;;;;;13.40;9.63;;;17.90;99.90;;;-146.41;100.00;57768.22;4977305;28;20443;-69
2022/06/05 04:34:17;;;;;;;14.45;10.43;;;17.90;99.90;;;-146.41;100.00;57768.22;4983164;28;20058;-70
2022/06/05 04:36:45;;;;;;;16.90;14.07;;;17.90;99.90;;;-146.41;100.00;57768.22;4990977;28;20464;-69
2022/06/05 04:39:13;;;;;;;17.00;14.73;;;17.80;99.90;;;-146.41;100.00;57768.22;4994467;28;20072;-69
2022/06/05 04:41:41;;;;;;;15.88;13.15;;;17.80;99.90;;;-146.41;100.00;57768.22;4993401;28;20527;-69
2022/06/05 04:44:13;;;;;;;16.90;12.80;;;17.80;99.90;;;-146.41;100.00;57768.22;4973148;28;20050;-70
2022/06/05 04:46:40;;;;;;;13.82;8.93;;;17.80;99.90;;;-146.41;100.00;57768.22;4994712;28;20051;-69
2022/06/05 04:49:07;;;;;;;11.55;9.75;;;17.90;99.90;;;-146.41;100.00;57768.22;4989441;28;20078;-69
2022/06/05 04:51:36;;;;;;;14.93;12.00;;;17.90;99.90;;;-146.41;100.00;57768.22;4992682;28;20077;-69
2022/06/05 04:54:06;;;;;;;11.65;10.35;;;17.90;99.90;;;-146.41;100.00;57768.22;4973637;28;20128;-70
2022/06/05 04:56:33;;;;;;;10.32;8.50;;;17.90;99.90;;;-146.41;100.00;57768.22;4992538;28;20053;-70
2022/06/05 04:59:01;;;;;;;11.10;8.52;;;17.90;99.90;;;-146.41;100.00;57768.22;4992097;28;20146;-70
2022/06/05 05:01:36;;;;;;;10.85;8.10;;;17.90;99.90;;;-146.41;100.00;57768.22;4987915;28;20490;-70
2022/06/05 05:04:09;;;;;;;20.08;14.93;;;17.90;99.90;;;-146.41;100.00;57768.22;4972260;28;20078;-69
2022/06/05 05:06:37;;;;;;;10.57;7.88;;;18.00;99.90;;;-146.41;100.00;57768.22;4975962;28;20931;-70
2022/06/05 05:09:05;;;;;;;9.30;7.75;;;18.00;99.90;;;-146.41;100.00;57768.22;4990607;28;21212;-69
2022/06/05 05:11:33;;;;;;;16.23;10.52;;;18.00;99.90;;;-146.41;100.00;57768.22;4991434;28;20078;-69
2022/06/05 05:14:01;;;;;;;13.27;11.23;;;18.10;99.90;;;-146.41;100.00;57768.22;4989518;28;20069;-70
2022/06/05 05:16:30;;;;;;;14.70;11.80;;;18.10;99.90;;;-146.41;100.00;57768.22;4989116;28;20097;-70
2022/06/05 05:19:05;;;;;;;15.88;13.07;;;18.10;99.90;;;-146.41;100.00;57768.22;4996306;28;20134;-70
2022/06/05 05:21:32;;;;;;;14.73;10.10;;;18.10;99.90;;;-146.41;100.00;57768.22;4986631;28;20129;-70
2022/06/05 05:23:59;;;;;;;15.38;11.93;;;18.10;99.90;;;-146.41;100.00;57768.22;4991379;28;20658;-69
2022/06/05 05:26:32;;;;;;;15.65;12.10;;;18.20;99.90;;;-146.41;100.00;57768.22;4986691;28;20522;-69
2022/06/05 05:29:01;;;;;;;12.50;10.57;;;18.20;99.90;;;-146.41;100.00;57768.22;4990929;28;20136;-69
2022/06/05 05:31:33;;;;;;;14.20;8.60;;;18.20;99.90;;;-146.41;100.00;57768.22;4992394;28;20452;-69
2022/06/05 05:34:01;;;;;;;12.57;9.20;;;18.20;99.90;;;-146.41;100.00;57768.22;4972444;28;20563;-69
2022/06/05 05:36:28;;;;;;;13.60;8.80;;;18.30;99.90;;;-146.41;100.00;57768.22;4991034;28;20093;-69
2022/06/05 05:44:48;;;;;;;11.18;9.55;;;18.40;99.90;;;-146.41;100.00;57768.22;4993805;28;20474;-69
2022/06/05 05:47:30;;;;;;;13.23;10.30;;;18.40;99.90;;;-146.41;100.00;57768.22;4995405;28;20065;-69
2022/06/05 05:50:02;;;;;;;12.45;11.20;;;18.50;99.90;;;-146.41;100.00;57768.22;4994719;28;20059;-69
2022/06/05 05:52:30;;;;;;;12.32;9.25;;;18.60;99.90;;;-146.41;100.00;57768.22;4987193;28;20137;-70
2022/06/05 05:54:57;;;;;;;12.43;9.00;;;18.70;99.90;;;-146.41;100.00;57768.22;4992169;28;20495;-69
2022/06/05 05:57:25;;;;;;;11.80;9.98;;;18.90;99.90;;;-146.41;100.00;57768.22;4991294;28;20042;-70
2022/06/05 05:59:52;;;;;;;9.32;8.20;;;19.00;99.90;;;-146.41;100.00;57768.22;4987303;28;20138;-70
2022/06/05 06:02:23;;;;;;;7.95;6.32;;;19.20;99.90;;;-146.41;100.00;57768.22;4990404;28;20069;-69
2022/06/05 06:04:52;;;;;;;8.73;7.65;;;19.40;99.90;;;-146.41;100.00;57768.22;4995160;28;20125;-70
2022/06/05 06:07:20;;;;;;;8.65;7.32;;;19.60;99.90;;;-146.41;100.00;57768.22;4987945;28;20078;-70
2022/06/05 06:09:47;;;;;;;10.77;8.18;;;19.60;99.90;;;-146.41;100.00;57768.22;4976895;28;20073;-70
2022/06/05 06:12:22;;;;;;;11.00;8.35;;;19.60;99.90;;;-146.41;100.00;57768.22;4991188;28;20126;-69
2022/06/05 06:14:50;;;;;;;9.55;7.97;;;19.70;99.90;;;-146.41;100.00;57768.22;4989188;28;20050;-69
2022/06/05 06:17:18;;;;;;;7.45;6.63;;;19.80;99.90;;;-146.41;100.00;57768.22;4990442;28;21816;-69
2022/06/05 06:19:45;;;;;;;6.88;5.50;;;20.00;99.90;;;-146.41;100.00;57768.22;4992072;28;20112;-70
2022/06/05 06:22:12;;;;;;;10.10;6.97;;;20.20;99.90;;;-146.41;100.00;57768.22;4991020;28;20097;-70
2022/06/05 06:24:39;;;;;;;8.70;7.72;;;20.20;99.90;;;-146.41;100.00;57768.22;4989538;28;20050;-70
2022/06/05 06:27:06;;;;;;;8.20;6.78;;;20.20;99.90;;;-146.41;100.00;57768.22;4992800;28;20133;-70
2022/06/05 06:29:35;;;;;;;10.55;8.00;;;20.10;99.90;;;-146.41;100.00;57768.22;4992183;28;20050;-70
2022/06/05 06:32:03;;;;;;;7.18;6.47;;;20.10;99.90;;;-146.41;100.00;57768.22;4981170;28;20773;-69
2022/06/05 06:34:30;;;;;;;8.27;7.13;;;20.10;99.90;;;-146.41;100.00;57768.22;4993729;28;20126;-69
2022/06/05 06:36:58;;;;;;;9.55;8.55;;;20.00;99.90;;;-146.41;100.00;57768.22;4992423;28;20058;-70
2022/06/05 06:39:25;;;;;;;10.30;8.77;;;19.90;99.90;;;-146.41;100.00;57768.22;4992823;28;20125;-70
2022/06/05 06:41:52;;;;;;;9.20;7.90;;;19.90;99.90;;;-146.41;100.00;57768.22;4988933;28;20058;-70
2022/06/05 06:44:19;;;;;;;9.13;8.13;;;20.00;99.90;;;-146.41;100.00;57768.22;4988322;28;20054;-70
2022/06/05 06:46:47;;;;;;;11.25;9.90;;;19.90;99.90;;;-146.41;100.00;57768.22;4985295;28;20445;-70
2022/06/05 06:49:15;;;;;;;9.00;8.02;;;19.90;99.90;;;-146.41;100.00;57768.22;4979692;28;20049;-69
2022/06/05 06:51:42;;;;;;;10.75;9.65;;;19.80;99.90;;;-146.41;100.00;57768.22;4992545;28;20074;-70
2022/06/05 06:54:09;;;;;;;12.00;9.50;;;19.80;99.90;;;-146.41;100.00;57768.22;4995229;28;20054;-70
2022/06/05 06:56:36;;;;;;;7.70;6.90;;;19.70;99.90;;;-146.41;100.00;57768.22;4989866;28;20656;-70
2022/06/05 06:59:04;;;;;;;8.80;7.22;;;19.70;99.90;;;-146.41;100.00;57768.22;4991609;28;20246;-69
2022/06/05 07:01:32;;;;;;;8.73;6.32;;;19.80;99.90;;;-146.41;100.00;57768.22;4987307;28;20057;-70
2022/06/05 07:03:59;;;;;;;7.88;6.30;;;19.90;99.90;;;-146.41;100.00;57768.22;4989450;28;20124;-69
2022/06/05 07:06:26;;;;;;;9.10;6.93;;;20.00;99.90;;;-146.41;100.00;57768.22;4989720;28;20053;-70
2022/06/05 07:08:53;;;;;;;9.77;7.85;;;20.10;99.90;;;-146.41;100.00;57768.22;4989307;28;20080;-69
2022/06/05 07:11:20;;;;;;;12.80;7.25;;;20.10;99.90;;;-146.41;100.00;57768.22;4988984;28;20137;-69
2022/06/05 07:13:49;;;;;;;8.13;7.05;;;20.00;99.90;;;-146.41;100.00;57768.22;4986452;28;20731;-69
2022/06/05 07:16:18;;;;;;;9.10;7.40;;;20.00;99.90;;;-146.41;100.00;57768.22;4994200;28;20049;-69
2022/06/05 07:18:46;;;;;;;10.32;9.25;;;20.00;99.90;;;-146.41;100.00;57768.22;4988780;28;20596;-69
2022/06/05 07:21:20;;;;;;;11.13;8.57;;;19.80;99.90;;;-146.41;100.00;57768.22;4989346;28;20554;-70
2022/06/05 07:23:49;;;;;;;11.60;10.10;;;19.70;99.90;;;-146.41;100.00;57768.22;4992927;28;20061;-70
2022/06/05 07:26:19;;;;;;;12.35;9.52;;;19.80;99.90;;;-146.41;100.00;57768.22;4992475;28;20088;-69
2022/06/05 07:28:47;;;;;;;11.18;10.05;;;19.70;99.90;;;-146.41;100.00;57768.22;4990956;28;20074;-70
2022/06/05 07:31:17;;;;;;;12.43;11.23;;;19.80;99.90;;;-146.41;100.00;57768.22;4990019;28;20656;-69
2022/06/05 07:33:45;;;;;;;12.40;11.20;;;19.80;99.90;;;-146.41;100.00;57768.22;4987791;28;20042;-69
2022/06/05 07:36:16;;;;;;;10.25;9.25;;;19.90;99.90;;;-146.41;100.00;57768.22;4985215;28;20060;-67
2022/06/05 07:38:44;;;;;;;13.38;11.40;;;20.00;99.90;;;-146.41;100.00;57768.22;4981216;28;20050;-67
2022/06/05 07:41:27;;;;;;;12.50;11.05;;;20.10;99.90;;;-146.41;100.00;57768.22;4978684;28;20124;-68
2022/06/05 07:43:54;;;;;;;12.77;11.43;;;20.20;99.90;;;-146.41;100.00;57768.22;4964591;28;20089;-68
2022/06/05 07:46:22;;;;;;;11.48;10.27;;;20.20;99.90;;;-146.41;100.00;57768.22;4967940;28;20054;-68
2022/06/05 07:48:49;;;;;;;12.10;10.90;;;20.30;99.90;;;-146.41;100.00;57768.22;4990688;28;20136;-68
2022/06/05 07:54:31;;;;;;;12.75;10.90;;;20.30;99.90;;;-146.41;100.00;57768.22;4993232;28;20050;-69
2022/06/05 07:57:12;;;;;;;9.88;8.88;;;20.30;99.90;;;-146.41;100.00;57768.22;4995766;28;20082;-70
2022/06/05 07:59:46;;;;;;;15.20;12.63;;;20.40;99.90;;;-146.41;100.00;57768.22;4991573;28;20133;-70
2022/06/05 08:02:24;;;;;;;15.23;10.68;;;20.40;99.90;;;-146.41;100.00;57768.22;4992321;28;20129;-69
2022/06/05 08:04:54;;;;;;;10.25;9.07;;;20.40;99.90;;;-146.41;100.00;57768.22;4992242;28;20523;-68
2022/06/05 08:07:25;;;;;;;13.90;9.45;;;20.40;99.90;;;-146.41;100.00;57768.22;4988900;28;20153;-69
2022/06/05 08:09:53;;;;;;;12.40;11.10;;;20.50;99.90;;;-146.41;100.00;57768.22;4989259;28;20129;-69
2022/06/05 08:12:22;;;;;;;11.55;9.70;;;20.60;99.90;;;-146.41;100.00;57768.22;4991435;28;20046;-69
2022/06/05 08:14:51;;;;;;;12.15;9.05;;;20.70;99.90;;;-146.41;100.00;57768.22;4989976;28;20760;-70
2022/06/05 08:17:25;;;;;;;10.77;9.75;;;21.00;99.90;;;-146.41;100.00;57768.22;4989747;28;20044;-70
2022/06/05 08:19:54;;;;;;;11.73;10.52;;;21.10;99.90;;;-146.41;100.00;57768.22;4968234;28;20588;-70
2022/06/05 08:22:23;;;;;;;14.30;12.80;;;21.00;99.90;;;-146.41;100.00;57768.22;4988679;28;20050;-69
2022/06/05 08:24:52;;;;;;;17.92;12.10;;;20.90;99.90;;;-146.41;100.00;57768.22;4963255;28;20133;-70
2022/06/05 08:27:24;;;;;;;11.82;10.60;;;20.70;99.90;;;-146.41;100.00;57768.22;4991054;28;20058;-70
2022/06/05 08:29:52;;;;;;;;;;;20.80;99.90;;;-146.41;100.00;57768.22;4994256;28;20046;-70
2022/06/05 08:32:19;;;;;;;14.27;11.25;;;20.70;99.90;;;-146.41;100.00;57768.22;4973876;28;19980;-70
2022/06/05 08:34:46;;;;;;;16.85;15.20;;;20.60;99.90;;;-146.41;100.00;57768.22;4993916;28;20560;-70
2022/06/05 08:43:32;;;;;;;14.23;11.75;;;20.00;99.90;;;-146.41;100.00;57768.22;4989710;28;20050;-69
2022/06/05 08:46:23;;;;;;;12.30;10.73;;;19.90;99.90;;;-146.41;100.00;57768.22;4970807;28;20058;-68
2022/06/05 08:49:00;;;;;;;12.38;10.95;;;20.00;99.90;;;-146.41;100.00;57768.22;4973087;28;20132;-69
2022/06/05 08:52:05;;;;;;;12.48;10.45;;;20.00;99.90;;;-146.41;100.00;57768.22;4977779;28;20046;-69
2022/06/05 08:55:07;;;;;;;20.27;15.73;;;20.00;99.90;;;-146.41;100.00;57768.22;4989954;28;20042;-69
2022/06/05 08:58:17;;;;;;;11.98;10.65;;;20.00;99.90;;;-146.41;100.00;57768.22;4975141;28;20140;-69
2022/06/05 09:01:01;;;;;;;13.38;12.07;;;20.10;99.90;;;-146.41;100.00;57768.22;4918330;28;20468;-69
2022/06/05 09:03:43;;;;;;;12.23;11.02;;;20.20;99.90;;;-146.41;100.00;57768.22;4972848;28;20511;-68
2022/06/05 09:06:34;;;;;;;14.45;12.93;;;20.30;99.90;;;-146.41;100.00;57768.22;4988783;28;20051;-69
2022/06/05 09:09:05;;;;;;;13.45;12.15;;;20.30;99.90;;;-146.41;100.00;57768.22;4973501;28;20423;-70
2022/06/05 09:11:49;;;;;;;16.10;14.38;;;20.40;99.90;;;-146.41;100.00;57768.22;4973811;28;20129;-70
2022/06/05 09:14:39;;;;;;;12.95;11.60;;;20.40;99.90;;;-146.41;100.00;57768.22;4973207;28;20090;-70
2022/06/05 09:17:13;;;;;;;18.15;14.20;;;20.60;99.90;;;-146.41;100.00;57768.22;4981170;28;20050;-70
2022/06/05 09:19:41;;;;;;;17.30;14.32;;;20.60;99.90;;;-146.41;100.00;57768.22;4970271;28;20200;-70
2022/06/05 09:22:19;;;;;;;12.55;10.80;;;20.70;99.90;;;-146.41;100.00;57768.22;4969015;28;20050;-70
2022/06/05 09:25:14;;;;;;;12.20;10.98;;;20.90;99.90;;;-146.41;100.00;57768.22;4982899;28;20107;-70
2022/06/05 09:28:29;;;;;;;13.93;10.32;;;21.10;99.90;;;-146.41;100.00;57768.22;4975446;28;20078;-69
2022/06/05 09:31:44;;;;;;;9.43;8.20;;;21.50;99.90;;;-146.41;100.00;57768.22;4989173;28;20065;-70
2022/06/05 09:34:45;;;;;;;11.95;9.20;;;22.10;99.90;;;-146.41;100.00;57768.22;4983527;28;20137;-69
2022/06/05 09:37:37;;;;;;;11.52;8.10;;;22.50;99.90;;;-146.41;100.00;57768.22;4970252;28;20140;-70
2022/06/05 09:40:26;;;;;;;11.30;8.50;;;22.50;99.90;;;-146.41;100.00;57768.22;4973158;28;20050;-69
2022/06/05 09:43:50;;;;;;;10.73;9.13;;;22.40;99.90;;;-146.41;100.00;57768.22;4972733;28;20772;-69
2022/06/05 09:46:54;;;;;;;12.63;10.07;;;22.30;99.90;;;-146.41;100.00;57768.22;4992215;28;20085;-69
2022/06/05 09:49:49;;;;;;;7.20;6.45;;;22.00;99.90;;;-146.41;100.00;57768.22;4989425;28;20085;-69
2022/06/05 09:52:27;;;;;;;9.77;7.75;;;21.90;99.90;;;-146.41;100.00;57768.22;4975290;28;20073;-69
2022/06/05 09:55:20;;;;;;;7.75;6.40;;;22.10;99.90;;;-146.41;100.00;57768.22;4987399;28;20545;-70
2022/06/05 09:58:28;;;;;;;7.88;7.13;;;22.50;99.90;;;-146.41;100.00;57768.22;4987278;28;20081;-69
2022/06/05 10:00:59;;;;;;;7.28;6.57;;;22.60;99.90;;;-146.41;100.00;57768.22;4986763;28;20499;-69
2022/06/05 10:03:38;;;;;;;8.17;6.13;;;22.50;99.90;;;-146.41;100.00;57768.22;4988288;28;20803;-70
2022/06/05 10:06:15;;;;;;;9.93;7.53;;;22.50;99.90;;;-146.41;100.00;57768.22;4975685;28;20042;-68
2022/06/05 10:08:50;;;;;;;9.15;5.70;;;22.40;99.90;;;-146.41;100.00;57768.22;4990718;28;20164;-69
2022/06/05 10:12:04;;;;;;;7.05;5.10;;;22.30;99.90;;;-146.41;100.00;57768.22;4974578;28;20472;-70
2022/06/05 10:14:50;;;;;;;9.57;5.93;;;22.30;99.90;;;-146.41;100.00;57768.22;4965135;28;20489;-69
2022/06/05 10:17:41;;;;;;;7.47;5.80;;;22.50;99.90;;;-146.41;100.00;57768.22;4989263;28;20437;-69
2022/06/05 10:20:14;;;;;;;5.15;4.22;;;22.70;99.90;;;-146.41;100.00;57768.22;4987258;28;20500;-69
2022/06/05 10:23:19;;;;;;;5.18;4.13;;;22.90;99.90;;;-146.41;100.00;57768.22;4984552;28;20053;-69
2022/06/05 10:26:12;;;;;;;7.18;4.75;;;23.00;99.90;;;-146.41;100.00;57768.22;4987509;28;20208;-69
2022/06/05 10:28:42;;;;;;;11.07;5.78;;;22.90;99.90;;;-146.41;100.00;57768.22;4988550;28;20193;-70
2022/06/05 10:31:20;;;;;;;8.50;4.80;;;22.50;99.90;;;-146.41;100.00;57768.22;4986078;28;20080;-69
2022/06/05 10:35:11;;;;;;;8.43;5.47;;;22.60;99.90;;;-146.41;100.00;57768.22;4984297;28;20112;-69
2022/06/05 10:37:56;;;;;;;6.80;5.82;;;22.60;99.90;;;-146.41;100.00;57768.22;4886846;29;20075;-69
2022/06/05 10:40:46;;;;;;;7.03;6.30;;;22.40;99.90;;;-146.41;100.00;57768.22;4978928;28;20125;-69
2022/06/05 10:43:26;;;;;;;5.07;4.13;;;22.40;99.90;;;-146.41;100.00;57768.22;4973319;28;20056;-69
2022/06/05 10:46:23;;;;;;;5.18;3.83;;;22.40;99.90;;;-146.41;100.00;57768.22;4970251;28;20423;-70
2022/06/05 10:48:59;;;;;;;7.65;4.28;;;22.50;99.90;;;-146.41;100.00;57768.22;4971540;28;20051;-69